Chiselville, Vermont
Current Conditions -  °F | °C
As of 1:54 PM on Sunday 21 Dec 2014 (Local Time) from KDDH Reporting Station
Haze Haze  
Wind Chill: 28°   Ceiling: 800
Heat Index: 28°   Visibility: 4mi
Dew Point: 24°   Wind: 3mph
Humidity: 85%   Direction: 330°NNW
Pressure: 30.27"   Gusts: NA
Location:  43.0661°N, 73.1407°W
Report Text: KDDH 211854Z AUTO 33003KT 4SM BR OVC008 M02/M04 A3027 RMK AO2 SNB1757E13 SLP262 P0000 T10221044
Loading
Personal Weather Stations






























Interactive Weather Map New forecast layout! Learn more

10-Day Weather Forecast

Advertisements
Track Severe Weather on mobile